createdAt,value
2022-10-04T00:00:12.330Z,98470.66
2022-10-04T00:03:19.838Z,98466.66
2022-10-04T00:06:25.309Z,98468.59
2022-10-04T00:09:31.013Z,98466.94
2022-10-04T00:12:35.921Z,98481.72
2022-10-04T00:15:39.172Z,98484.69
2022-10-04T00:18:46.203Z,98484.63
2022-10-04T00:22:10.226Z,98497.19
2022-10-04T00:25:18.715Z,98497.56
2022-10-04T00:28:44.179Z,98490.00
2022-10-04T00:32:01.691Z,98494.34
2022-10-04T00:35:05.011Z,98492.03
2022-10-04T00:38:10.340Z,98502.34
2022-10-04T00:41:14.823Z,98496.72
2022-10-04T00:44:21.279Z,98500.13
2022-10-04T00:47:31.818Z,98498.66
2022-10-04T00:50:37.172Z,98496.31
2022-10-04T00:53:48.511Z,98498.97
2022-10-04T00:56:53.501Z,98496.81
2022-10-04T00:59:59.252Z,98507.56
2022-10-04T01:03:03.657Z,98511.06
2022-10-04T01:06:08.076Z,98506.16
2022-10-04T01:09:11.714Z,98501.78
2022-10-04T01:12:22.496Z,98497.47
2022-10-04T01:15:31.080Z,98493.47
2022-10-04T01:18:34.383Z,98497.13
2022-10-04T01:21:39.241Z,98507.06
2022-10-04T01:24:44.160Z,98497.97
2022-10-04T01:27:46.961Z,98498.78
2022-10-04T01:30:50.058Z,98507.47
2022-10-04T01:33:52.825Z,98513.47
2022-10-04T01:36:56.677Z,98508.78
2022-10-04T01:40:00.806Z,98512.78
2022-10-04T01:43:06.160Z,98519.94
2022-10-04T01:46:12.181Z,98525.44
2022-10-04T01:49:18.402Z,98521.75
2022-10-04T01:52:23.472Z,98529.72
2022-10-04T01:55:30.076Z,98535.59
2022-10-04T01:58:35.093Z,98532.09
2022-10-04T02:01:40.703Z,98520.09
2022-10-04T02:04:44.414Z,98525.69
2022-10-04T02:07:48.767Z,98528.78
2022-10-04T02:10:54.976Z,98527.78
2022-10-04T02:13:58.522Z,98537.88
2022-10-04T02:17:02.678Z,98530.09
2022-10-04T02:20:10.853Z,98531.75
2022-10-04T02:23:13.982Z,98534.44
2022-10-04T02:26:18.074Z,98536.03
2022-10-04T02:29:21.319Z,98538.16
2022-10-04T02:32:41.807Z,98536.38
2022-10-04T02:35:45.977Z,98547.53
2022-10-04T02:38:52.714Z,98554.72
2022-10-04T02:41:58.946Z,98554.00
2022-10-04T02:45:06.888Z,98551.69
2022-10-04T02:48:18.266Z,98555.38
2022-10-04T02:51:22.151Z,98562.00
2022-10-04T02:54:29.781Z,98565.72
2022-10-04T02:57:35.105Z,98569.66
2022-10-04T03:00:47.661Z,98563.72
2022-10-04T03:03:50.383Z,98560.84
2022-10-04T03:06:54.051Z,98569.91
2022-10-04T03:09:56.765Z,98574.44
2022-10-04T03:13:00.802Z,98573.16
2022-10-04T03:16:03.899Z,98589.09
2022-10-04T03:19:07.812Z,98585.63
2022-10-04T03:22:11.549Z,98584.59
2022-10-04T03:25:17.169Z,98595.53
2022-10-04T03:28:21.692Z,98598.72
2022-10-04T03:31:26.896Z,98597.25
2022-10-04T03:34:33.115Z,98587.81
2022-10-04T03:37:36.714Z,98591.22
2022-10-04T03:40:43.086Z,98597.16
2022-10-04T03:43:49.458Z,98605.16
2022-10-04T03:46:52.199Z,98596.84
2022-10-04T03:49:55.845Z,98601.53
2022-10-04T03:53:00.043Z,98601.44
2022-10-04T03:56:04.666Z,98610.66
2022-10-04T03:59:09.952Z,98625.59
2022-10-04T04:02:17.211Z,98627.97
2022-10-04T04:05:22.992Z,98628.78
2022-10-04T04:08:28.340Z,98630.88
2022-10-04T04:11:31.083Z,98629.38
2022-10-04T04:14:35.157Z,98637.09
2022-10-04T04:17:40.965Z,98636.78
2022-10-04T04:20:44.842Z,98642.63
2022-10-04T04:23:50.377Z,98636.28
2022-10-04T04:26:55.424Z,98639.56
2022-10-04T04:30:00.604Z,98646.38
2022-10-04T04:33:08.206Z,98645.06
2022-10-04T04:36:12.694Z,98655.41
2022-10-04T04:39:36.817Z,98654.22
2022-10-04T04:42:39.502Z,98657.91
2022-10-04T04:45:43.747Z,98653.34
2022-10-04T04:48:48.410Z,98655.34
2022-10-04T04:51:52.412Z,98669.25
2022-10-04T04:54:56.489Z,98674.75
2022-10-04T04:58:00.353Z,98670.56
2022-10-04T05:01:07.193Z,98683.84
2022-10-04T05:04:17.961Z,98694.53
2022-10-04T05:07:21.156Z,98702.78
2022-10-04T05:10:30.745Z,98699.69
2022-10-04T05:13:37.257Z,98705.75
2022-10-04T05:16:43.083Z,98709.25
2022-10-04T05:19:46.398Z,98712.28
2022-10-04T05:22:50.400Z,98706.69
2022-10-04T05:25:53.499Z,98707.75
2022-10-04T05:28:56.456Z,98713.78
2022-10-04T05:32:06.335Z,98717.50
2022-10-04T05:35:16.299Z,98717.41
2022-10-04T05:38:26.613Z,98710.72
2022-10-04T05:41:33.602Z,98719.94
2022-10-04T05:44:37.956Z,98723.09
2022-10-04T05:47:43.116Z,98723.72
2022-10-04T05:50:45.903Z,98728.56
2022-10-04T05:53:50.283Z,98724.69
2022-10-04T05:57:10.860Z,98720.28
2022-10-04T06:00:15.821Z,98736.38
2022-10-04T06:03:30.087Z,98738.97
2022-10-04T06:06:38.764Z,98742.13
2022-10-04T06:09:51.731Z,98743.13
2022-10-04T06:12:58.346Z,98753.16
2022-10-04T06:16:17.048Z,98753.63
2022-10-04T06:19:34.707Z,98751.97
2022-10-04T06:22:45.707Z,98757.44
2022-10-04T06:25:50.447Z,98754.09
2022-10-04T06:28:56.247Z,98756.44
2022-10-04T06:32:24.103Z,98757.09
2022-10-04T06:35:42.897Z,98758.44
2022-10-04T06:39:04.036Z,98767.75
2022-10-04T06:42:25.361Z,98768.44
2022-10-04T06:45:31.725Z,98768.44
2022-10-04T06:48:44.508Z,98778.09
2022-10-04T06:51:57.775Z,98778.13
2022-10-04T06:55:18.058Z,98776.25
2022-10-04T06:58:39.007Z,98781.78
2022-10-04T07:01:49.264Z,98782.69
2022-10-04T07:05:08.112Z,98776.47
2022-10-04T07:08:13.615Z,98775.63
2022-10-04T07:11:18.696Z,98783.50
2022-10-04T07:14:27.591Z,98787.31
2022-10-04T07:17:31.687Z,98797.22
2022-10-04T07:20:35.730Z,98793.69
2022-10-04T07:23:40.836Z,98795.03
2022-10-04T07:26:46.299Z,98798.81
2022-10-04T07:29:56.198Z,98800.03
2022-10-04T07:32:59.375Z,98806.13
2022-10-04T07:36:05.258Z,98809.66
2022-10-04T07:39:11.511Z,98808.50
2022-10-04T07:42:20.511Z,98809.34
2022-10-04T07:45:30.059Z,98813.06
2022-10-04T07:48:33.266Z,98815.34
2022-10-04T07:51:40.058Z,98819.63
2022-10-04T07:54:46.957Z,98824.00
2022-10-04T07:57:55.037Z,98817.97
2022-10-04T08:01:02.256Z,98820.63
2022-10-04T08:04:15.316Z,98819.94
2022-10-04T08:07:20.845Z,98814.25
2022-10-04T08:10:27.782Z,98823.25
2022-10-04T08:13:36.109Z,98820.53
2022-10-04T08:16:47.351Z,98830.25
2022-10-04T08:19:58.007Z,98831.88
2022-10-04T08:23:06.315Z,98828.50
2022-10-04T08:26:18.705Z,98823.41
2022-10-04T08:29:47.395Z,98829.31
2022-10-04T08:32:56.008Z,98832.13
2022-10-04T08:36:06.024Z,98827.78
2022-10-04T08:39:18.578Z,98827.91
2022-10-04T08:42:41.976Z,98830.97
2022-10-04T08:46:10.966Z,98835.09
2022-10-04T08:49:40.052Z,98844.50
2022-10-04T08:53:00.020Z,98834.78
2022-10-04T08:56:17.388Z,98840.06
2022-10-04T08:59:50.897Z,98834.38
2022-10-04T09:03:18.985Z,98842.88
2022-10-04T09:06:42.763Z,98845.97
2022-10-04T09:10:09.165Z,98839.53
2022-10-04T09:13:33.031Z,98843.78
2022-10-04T09:16:43.798Z,98838.97
2022-10-04T09:19:54.040Z,98851.09
2022-10-04T09:23:02.867Z,98849.53
2022-10-04T09:26:21.052Z,98844.94
2022-10-04T09:29:33.040Z,98857.69
2022-10-04T09:32:49.150Z,98858.34
2022-10-04T09:36:00.119Z,98866.03
2022-10-04T09:39:30.058Z,98862.06
2022-10-04T09:42:42.367Z,98869.19
2022-10-04T09:45:52.848Z,98867.41
2022-10-04T09:49:04.885Z,98873.78
2022-10-04T09:52:14.284Z,98872.97
2022-10-04T09:55:24.221Z,98877.94
2022-10-04T09:58:45.377Z,98870.75
2022-10-04T10:01:51.903Z,98876.59
2022-10-04T10:05:02.253Z,98874.91
2022-10-04T10:08:13.005Z,98873.97
2022-10-04T10:11:39.552Z,98877.31
2022-10-04T10:14:57.781Z,98886.19
2022-10-04T10:18:06.404Z,98879.69
2022-10-04T10:21:19.747Z,98887.44
2022-10-04T10:24:28.142Z,98889.16
2022-10-04T10:27:45.761Z,98900.19
2022-10-04T10:30:59.016Z,98908.22
2022-10-04T10:34:14.562Z,98905.91
2022-10-04T10:37:18.978Z,98908.59
2022-10-04T10:40:40.956Z,98908.41
2022-10-04T10:44:02.299Z,98913.13
2022-10-04T10:47:15.075Z,98908.22
2022-10-04T10:50:27.481Z,98906.38
2022-10-04T10:53:46.208Z,98903.47
2022-10-04T10:56:58.155Z,98913.16
2022-10-04T11:00:18.671Z,98915.56
2022-10-04T11:03:40.003Z,98910.09
2022-10-04T11:07:01.861Z,98910.50
2022-10-04T11:10:23.072Z,98913.66
2022-10-04T11:13:45.152Z,98916.97
2022-10-04T11:16:58.567Z,98915.78
2022-10-04T11:20:24.379Z,98915.63
2022-10-04T11:23:54.147Z,98922.72
2022-10-04T11:27:28.569Z,98926.69
2022-10-04T11:30:38.325Z,98932.88
2022-10-04T11:33:58.546Z,98939.03
2022-10-04T11:37:06.303Z,98952.38
2022-10-04T11:40:18.017Z,98937.25
2022-10-04T11:43:27.777Z,98939.94
2022-10-04T11:46:37.400Z,98943.53
2022-10-04T11:49:48.295Z,98944.59
2022-10-04T11:53:06.155Z,98946.84
2022-10-04T11:56:34.175Z,98948.84
2022-10-04T11:59:44.625Z,98953.03
2022-10-04T12:03:02.845Z,98951.50
2022-10-04T12:06:14.655Z,98963.72
2022-10-04T12:09:19.944Z,98960.59
2022-10-04T12:12:41.614Z,98963.44
2022-10-04T12:15:56.667Z,98968.72
2022-10-04T12:19:20.936Z,98968.44
2022-10-04T12:22:30.912Z,98974.63
2022-10-04T12:25:42.615Z,98965.03
2022-10-04T12:29:00.008Z,98972.03
2022-10-04T12:32:08.221Z,98976.34
2022-10-04T12:46:49.688Z,98981.16
2022-10-04T12:49:57.953Z,98984.84
2022-10-04T12:53:07.480Z,98996.06
2022-10-04T12:56:18.314Z,98990.25
2022-10-04T12:59:30.445Z,98996.09
2022-10-04T13:02:48.992Z,98998.34
2022-10-04T13:06:02.848Z,99004.41
2022-10-04T13:09:09.431Z,99011.50
2022-10-04T13:12:22.799Z,99016.53
2022-10-04T13:17:21.681Z,99035.78
2022-10-04T13:18:58.435Z,99045.56
2022-10-04T13:22:15.655Z,99053.72
2022-10-04T13:25:32.079Z,99054.34
2022-10-04T13:28:39.994Z,99051.28
2022-10-04T13:31:50.217Z,99049.63
2022-10-04T13:34:57.403Z,99044.78
2022-10-04T13:38:12.046Z,99038.72
2022-10-04T13:41:21.649Z,99043.78
2022-10-04T13:44:36.910Z,99049.03
2022-10-04T13:47:48.172Z,99048.97
2022-10-04T13:51:00.778Z,99060.28
2022-10-04T13:54:30.568Z,99053.38
2022-10-04T13:57:41.474Z,99064.00
2022-10-04T14:00:54.608Z,99063.31
2022-10-04T14:04:08.071Z,99070.84
2022-10-04T14:07:34.949Z,99087.84
2022-10-04T14:10:52.675Z,99090.81
2022-10-04T14:14:31.381Z,99099.19
2022-10-04T14:17:48.251Z,99097.00
2022-10-04T14:21:20.484Z,99104.13
2022-10-04T14:24:34.568Z,99113.72
2022-10-04T14:28:02.300Z,99118.13
2022-10-04T14:31:20.617Z,99117.91
2022-10-04T14:34:35.012Z,99123.03
2022-10-04T14:38:08.239Z,99114.88
2022-10-04T14:41:32.452Z,99123.97
2022-10-04T14:44:44.974Z,99128.13
2022-10-04T14:48:18.132Z,99128.94
2022-10-04T14:51:32.407Z,99134.59
2022-10-04T14:54:46.183Z,99138.03
2022-10-04T14:57:54.459Z,99147.56
2022-10-04T15:01:08.998Z,99142.75
2022-10-04T15:04:31.403Z,99146.59
2022-10-04T15:07:37.701Z,99140.53
2022-10-04T15:10:49.578Z,99162.47
2022-10-04T15:13:55.934Z,99161.88
2022-10-04T15:17:01.528Z,99172.97
2022-10-04T15:20:10.874Z,99176.72
2022-10-04T15:23:21.078Z,99184.31
2022-10-04T15:26:50.410Z,99188.16
2022-10-04T15:30:00.357Z,99196.25
2022-10-04T15:33:23.487Z,99193.91
2022-10-04T15:36:40.914Z,99196.72
2022-10-04T15:40:03.900Z,99197.81
2022-10-04T15:43:22.144Z,99202.44
2022-10-04T15:46:32.171Z,99208.38
2022-10-04T15:49:50.170Z,99207.38
2022-10-04T15:53:19.638Z,99215.75
2022-10-04T15:56:32.471Z,99216.31
2022-10-04T15:59:45.347Z,99227.09
2022-10-04T16:02:53.475Z,99225.88
2022-10-04T16:06:00.351Z,99230.63
2022-10-04T16:09:14.013Z,99227.06
2022-10-04T16:12:22.849Z,99232.28
2022-10-04T16:15:32.492Z,99239.28
2022-10-04T16:18:40.821Z,99236.38
2022-10-04T16:21:52.861Z,99239.28
2022-10-04T16:25:00.337Z,99242.59
2022-10-04T16:28:09.918Z,99242.81
2022-10-04T16:31:20.407Z,99239.31
2022-10-04T16:34:30.613Z,99238.88
2022-10-04T16:37:36.201Z,99246.84
2022-10-04T16:40:41.854Z,99247.47
2022-10-04T16:43:56.885Z,99253.75
2022-10-04T16:47:05.634Z,99246.84
2022-10-04T16:50:11.314Z,99258.03
2022-10-04T16:53:23.462Z,99259.13
2022-10-04T16:56:28.702Z,99251.78
2022-10-04T16:59:48.124Z,99261.31
2022-10-04T17:03:12.432Z,99252.81
2022-10-04T17:06:17.388Z,99253.06
2022-10-04T17:09:25.836Z,99262.06
2022-10-04T17:12:37.689Z,99263.91
2022-10-04T17:16:00.827Z,99261.09
2022-10-04T17:19:16.530Z,99265.63
2022-10-04T17:22:26.776Z,99269.81
2022-10-04T17:25:34.968Z,99271.00
2022-10-04T17:28:47.813Z,99274.59
2022-10-04T17:31:58.595Z,99276.50
2022-10-04T17:35:09.227Z,99272.00
2022-10-04T17:38:17.677Z,99267.22
2022-10-04T17:41:25.218Z,99268.34
2022-10-04T17:44:47.057Z,99268.78
2022-10-04T17:48:13.643Z,99279.63
2022-10-04T17:51:45.503Z,99280.25
2022-10-04T17:55:08.868Z,99274.78
2022-10-04T17:58:15.903Z,99276.06
2022-10-04T18:01:32.113Z,99282.16
2022-10-04T18:04:42.949Z,99276.88
2022-10-04T18:07:49.846Z,99284.59
2022-10-04T18:10:59.151Z,99283.44
2022-10-04T18:14:04.060Z,99279.09
2022-10-04T18:17:09.834Z,99284.69
2022-10-04T18:20:27.983Z,99292.47
2022-10-04T18:23:34.801Z,99280.78
2022-10-04T18:26:41.593Z,99286.97
2022-10-04T18:29:46.011Z,99288.09
2022-10-04T18:32:53.766Z,99298.28
2022-10-04T18:36:06.630Z,99289.34
2022-10-04T18:39:40.809Z,99300.41
2022-10-04T18:42:47.381Z,99298.00
2022-10-04T18:46:07.967Z,99294.13
2022-10-04T18:49:25.983Z,99291.44
2022-10-04T18:52:42.472Z,99293.81
2022-10-04T18:55:52.209Z,99288.63
2022-10-04T18:59:20.924Z,99285.69
2022-10-04T19:02:34.765Z,99285.84
2022-10-04T19:05:44.299Z,99289.19
2022-10-04T19:09:01.196Z,99291.72
2022-10-04T19:12:08.617Z,99289.78
2022-10-04T19:15:18.383Z,99289.50
2022-10-04T19:18:35.526Z,99284.31
2022-10-04T19:21:47.546Z,99289.47
2022-10-04T19:25:03.593Z,99282.66
2022-10-04T19:28:12.629Z,99290.34
2022-10-04T19:31:21.857Z,99282.78
2022-10-04T19:34:34.143Z,99285.41
2022-10-04T19:37:46.416Z,99290.31
2022-10-04T19:40:57.810Z,99291.78
2022-10-04T19:44:05.541Z,99286.09
2022-10-04T19:47:22.569Z,99283.63
2022-10-04T19:50:27.472Z,99284.31
2022-10-04T19:53:37.033Z,99288.38
2022-10-04T19:56:43.925Z,99293.66
2022-10-04T19:59:50.725Z,99295.63
2022-10-04T20:02:53.539Z,99285.16
2022-10-04T20:05:57.974Z,99289.66
2022-10-04T20:09:24.437Z,99286.56
2022-10-04T20:12:35.453Z,99288.69
2022-10-04T20:15:46.673Z,99289.84
2022-10-04T20:18:57.569Z,99301.78
2022-10-04T20:22:20.833Z,99295.22
2022-10-04T20:25:41.453Z,99299.00
2022-10-04T20:28:46.216Z,99290.19
2022-10-04T20:31:53.443Z,99298.59
2022-10-04T20:35:00.169Z,99283.09
2022-10-04T20:38:32.057Z,99283.59
2022-10-04T20:42:22.687Z,99287.56
2022-10-04T20:45:30.834Z,99282.25
2022-10-04T20:48:33.930Z,99279.00
2022-10-04T20:51:36.651Z,99287.50
2022-10-04T20:54:40.592Z,99287.09
2022-10-04T20:57:43.327Z,99279.16
2022-10-04T21:00:53.594Z,99280.16
2022-10-04T21:04:12.732Z,99289.19
2022-10-04T21:07:18.371Z,99288.66
2022-10-04T21:10:21.386Z,99289.53
2022-10-04T21:13:43.010Z,99297.84
2022-10-04T21:16:48.483Z,99296.50
2022-10-04T21:19:51.500Z,99294.69
2022-10-04T21:23:08.341Z,99296.06
2022-10-04T21:26:20.961Z,99300.69
2022-10-04T21:29:23.638Z,99300.94
2022-10-04T21:32:28.387Z,99302.75
2022-10-04T21:35:31.061Z,99305.16
2022-10-04T21:38:33.764Z,99306.59
2022-10-04T21:41:36.578Z,99305.16
2022-10-04T21:44:39.209Z,99303.22
2022-10-04T21:47:43.314Z,99313.00
2022-10-04T21:50:46.051Z,99312.56
2022-10-04T21:53:48.735Z,99311.88
2022-10-04T21:56:51.411Z,99303.22
2022-10-04T21:59:54.060Z,99311.59
2022-10-04T22:02:58.155Z,99314.94
2022-10-04T22:06:00.893Z,99312.16
2022-10-04T22:09:03.661Z,99312.53
2022-10-04T22:12:06.352Z,99320.31
2022-10-04T22:15:09.440Z,99312.75
2022-10-04T22:18:13.497Z,99312.84
2022-10-04T22:21:16.213Z,99318.34
2022-10-04T22:24:20.056Z,99313.31
2022-10-04T22:27:22.802Z,99317.66
2022-10-04T22:30:26.432Z,99315.00
2022-10-04T22:33:33.995Z,99320.59
2022-10-04T22:36:37.959Z,99328.56
2022-10-04T22:39:40.672Z,99320.03
2022-10-04T22:42:43.409Z,99323.53
2022-10-04T22:45:46.080Z,99331.38
2022-10-04T22:48:50.713Z,99340.13
2022-10-04T22:51:54.337Z,99336.56
2022-10-04T22:55:00.418Z,99334.88
2022-10-04T22:58:03.407Z,99334.81
2022-10-04T23:01:11.878Z,99334.31
2022-10-04T23:04:17.909Z,99343.00
2022-10-04T23:07:20.937Z,99346.34
2022-10-04T23:10:23.576Z,99348.69
2022-10-04T23:13:26.958Z,99361.75
2022-10-04T23:16:29.852Z,99356.53
2022-10-04T23:19:33.908Z,99356.16
2022-10-04T23:22:36.780Z,99360.34
2022-10-04T23:25:42.736Z,99368.09
2022-10-04T23:28:45.483Z,99367.16
2022-10-04T23:31:49.786Z,99361.16
2022-10-04T23:34:56.870Z,99366.44
2022-10-04T23:37:59.958Z,99369.69
2022-10-04T23:41:03.043Z,99371.28
2022-10-04T23:44:11.441Z,99368.19
2022-10-04T23:47:15.700Z,99363.91
2022-10-04T23:50:22.144Z,99370.16
2022-10-04T23:53:27.139Z,99371.44
2022-10-04T23:56:30.428Z,99370.31
2022-10-04T23:59:33.171Z,99361.13
